createdAt,value
2023-03-16T00:00:18.122Z,-2.48
2023-03-16T00:01:18.141Z,-2.47
2023-03-16T00:02:18.168Z,-2.52
2023-03-16T00:03:18.153Z,-2.52
2023-03-16T00:04:18.089Z,-2.55
2023-03-16T00:05:18.073Z,-2.56
2023-03-16T00:06:18.066Z,-2.59
2023-03-16T00:07:18.075Z,-2.59
2023-03-16T00:08:18.040Z,-2.56
2023-03-16T00:09:18.037Z,-2.56
2023-03-16T00:10:18.037Z,-2.58
2023-03-16T00:11:18.019Z,-2.58
2023-03-16T00:12:18.001Z,-2.55
2023-03-16T00:13:18.001Z,-2.56
2023-03-16T00:14:18.328Z,-2.53
2023-03-16T00:15:17.980Z,-2.55
2023-03-16T00:16:18.006Z,-2.53
2023-03-16T00:17:17.956Z,-2.53
2023-03-16T00:18:17.941Z,-2.50
2023-03-16T00:19:18.257Z,-2.50
2023-03-16T00:20:17.932Z,-2.50
2023-03-16T00:21:17.915Z,-2.53
2023-03-16T00:22:17.910Z,-2.53
2023-03-16T00:23:17.904Z,-2.48
2023-03-16T00:24:18.401Z,-2.50
2023-03-16T00:25:17.925Z,-2.52
2023-03-16T00:26:17.864Z,-2.53
2023-03-16T00:27:17.862Z,-2.52
2023-03-16T00:28:17.859Z,-2.48
2023-03-16T00:29:18.238Z,-2.50
2023-03-16T00:30:17.827Z,-2.47
2023-03-16T00:31:17.835Z,-2.48
2023-03-16T00:32:17.816Z,-2.59
2023-03-16T00:33:17.804Z,-2.62
2023-03-16T00:34:17.971Z,-2.65
2023-03-16T00:35:17.782Z,-2.63
2023-03-16T00:36:17.764Z,-2.63
2023-03-16T00:37:17.824Z,-2.66
2023-03-16T00:38:17.748Z,-2.65
2023-03-16T00:39:17.911Z,-2.65
2023-03-16T00:40:17.728Z,-2.65
2023-03-16T00:41:17.723Z,-2.66
2023-03-16T00:42:17.704Z,-2.65
2023-03-16T00:43:17.696Z,-2.66
2023-03-16T00:44:18.050Z,-2.69
2023-03-16T00:45:17.678Z,-2.69
2023-03-16T00:46:17.740Z,-2.66
2023-03-16T00:47:17.651Z,-2.71
2023-03-16T00:48:17.643Z,-2.66
2023-03-16T00:49:17.639Z,-2.70
2023-03-16T00:50:17.626Z,-2.70
2023-03-16T00:51:17.643Z,-2.71
2023-03-16T00:52:17.610Z,-2.71
2023-03-16T00:53:17.605Z,-2.73
2023-03-16T00:54:17.589Z,-2.77
2023-03-16T00:55:17.600Z,-2.77
2023-03-16T00:56:17.563Z,-2.78
2023-03-16T00:57:17.571Z,-2.77
2023-03-16T00:58:17.551Z,-2.80
2023-03-16T00:59:17.551Z,-2.80
2023-03-16T01:00:17.534Z,-2.80
2023-03-16T01:01:17.572Z,-2.78
2023-03-16T01:02:17.537Z,-2.76
2023-03-16T01:03:17.597Z,-2.77
2023-03-16T01:04:17.488Z,-2.76
2023-03-16T01:05:17.500Z,-2.73
2023-03-16T01:06:17.474Z,-2.71
2023-03-16T01:07:17.463Z,-2.70
2023-03-16T01:08:17.455Z,-2.71
2023-03-16T01:09:17.438Z,-2.70
2023-03-16T01:10:17.448Z,-2.66
2023-03-16T01:11:17.455Z,-2.70
2023-03-16T01:12:17.444Z,-2.70
2023-03-16T01:13:17.398Z,-2.70
2023-03-16T01:14:17.386Z,-2.73
2023-03-16T01:15:17.380Z,-2.74
2023-03-16T01:16:17.386Z,-2.74
2023-03-16T01:17:17.442Z,-2.77
2023-03-16T01:18:17.367Z,-2.80
2023-03-16T01:19:17.332Z,-2.78
2023-03-16T01:20:17.341Z,-2.81
2023-03-16T01:21:17.347Z,-2.81
2023-03-16T01:22:17.323Z,-2.80
2023-03-16T01:23:17.292Z,-2.81
2023-03-16T01:24:17.297Z,-2.84
2023-03-16T01:25:17.279Z,-2.83
2023-03-16T01:26:17.272Z,-2.84
2023-03-16T01:27:17.259Z,-2.86
2023-03-16T01:28:17.249Z,-2.88
2023-03-16T01:29:17.237Z,-2.89
2023-03-16T01:30:17.727Z,-2.86
2023-03-16T01:31:17.283Z,-2.86
2023-03-16T01:32:17.207Z,-2.88
2023-03-16T01:33:17.220Z,-2.88
2023-03-16T01:34:17.194Z,-2.86
2023-03-16T01:35:17.182Z,-2.86
2023-03-16T01:36:17.197Z,-2.89
2023-03-16T01:37:17.171Z,-2.91
2023-03-16T01:38:17.155Z,-2.89
2023-03-16T01:39:17.157Z,-2.91
2023-03-16T01:40:17.159Z,-2.92
2023-03-16T01:41:17.126Z,-2.98
2023-03-16T01:42:17.112Z,-2.97
2023-03-16T01:43:17.099Z,-2.97
2023-03-16T01:44:17.105Z,-2.98
2023-03-16T01:45:17.106Z,-2.97
2023-03-16T01:46:17.093Z,-2.95
2023-03-16T01:47:17.066Z,-2.95
2023-03-16T01:48:17.060Z,-2.92
2023-03-16T01:49:17.035Z,-2.88
2023-03-16T01:50:17.043Z,-2.89
2023-03-16T01:51:17.045Z,-2.89
2023-03-16T01:52:17.012Z,-2.88
2023-03-16T01:53:16.994Z,-2.88
2023-03-16T01:54:17.012Z,-2.92
2023-03-16T01:55:16.992Z,-2.89
2023-03-16T01:56:16.986Z,-2.86
2023-03-16T01:57:16.963Z,-2.89
2023-03-16T01:58:16.956Z,-2.88
2023-03-16T01:59:16.944Z,-2.86
2023-03-16T02:00:16.943Z,-2.88
2023-03-16T02:01:16.995Z,-2.84
2023-03-16T02:02:16.915Z,-2.83
2023-03-16T02:03:16.935Z,-2.78
2023-03-16T02:04:16.947Z,-2.78
2023-03-16T02:05:16.889Z,-2.77
2023-03-16T02:06:16.878Z,-2.74
2023-03-16T02:07:16.881Z,-2.73
2023-03-16T02:08:16.855Z,-2.76
2023-03-16T02:09:16.851Z,-2.80
2023-03-16T02:10:16.865Z,-2.80
2023-03-16T02:11:16.831Z,-2.84
2023-03-16T02:12:16.818Z,-2.84
2023-03-16T02:13:16.808Z,-2.86
2023-03-16T02:14:16.795Z,-2.86
2023-03-16T02:15:16.802Z,-2.81
2023-03-16T02:16:16.887Z,-2.83
2023-03-16T02:17:16.764Z,-2.86
2023-03-16T02:18:16.758Z,-2.86
2023-03-16T02:19:16.749Z,-2.84
2023-03-16T02:20:16.743Z,-2.88
2023-03-16T02:21:16.730Z,-2.88
2023-03-16T02:22:16.767Z,-2.88
2023-03-16T02:23:16.724Z,-2.89
2023-03-16T02:24:16.728Z,-2.89
2023-03-16T02:25:16.688Z,-2.91
2023-03-16T02:26:16.680Z,-2.91
2023-03-16T02:27:16.670Z,-2.94
2023-03-16T02:28:16.692Z,-2.88
2023-03-16T02:29:16.645Z,-2.91
2023-03-16T02:30:16.704Z,-2.92
2023-03-16T02:31:16.676Z,-2.95
2023-03-16T02:32:16.647Z,-2.92
2023-03-16T02:33:16.601Z,-2.94
2023-03-16T02:34:16.619Z,-2.89
2023-03-16T02:35:16.583Z,-2.88
2023-03-16T02:36:16.591Z,-2.91
2023-03-16T02:37:16.586Z,-2.88
2023-03-16T02:38:16.572Z,-2.89
2023-03-16T02:39:16.551Z,-2.89
2023-03-16T02:40:16.548Z,-2.89
2023-03-16T02:41:16.526Z,-2.92
2023-03-16T02:42:16.525Z,-2.94
2023-03-16T02:43:16.499Z,-2.95
2023-03-16T02:44:16.504Z,-2.95
2023-03-16T02:45:16.496Z,-2.97
2023-03-16T02:46:16.531Z,-2.94
2023-03-16T02:47:16.466Z,-2.92
2023-03-16T02:48:16.465Z,-2.92
2023-03-16T02:49:16.448Z,-2.92
2023-03-16T02:50:16.447Z,-2.92
2023-03-16T02:51:16.436Z,-2.94
2023-03-16T02:52:16.417Z,-2.94
2023-03-16T02:53:16.409Z,-2.99
2023-03-16T02:54:16.423Z,-3.02
2023-03-16T02:55:16.394Z,-3.02
2023-03-16T02:56:16.392Z,-3.04
2023-03-16T02:57:16.365Z,-3.02
2023-03-16T02:58:16.377Z,-3.06
2023-03-16T02:59:16.362Z,-3.04
2023-03-16T03:00:16.709Z,-3.04
2023-03-16T03:01:16.322Z,-3.06
2023-03-16T03:02:16.355Z,-3.07
2023-03-16T03:03:16.393Z,-3.07
2023-03-16T03:04:16.302Z,-3.09
2023-03-16T03:05:16.651Z,-3.13
2023-03-16T03:06:16.299Z,-3.19
2023-03-16T03:07:16.271Z,-3.23
2023-03-16T03:08:16.274Z,-3.25
2023-03-16T03:09:16.247Z,-3.28
2023-03-16T03:10:16.869Z,-3.31
2023-03-16T03:11:16.238Z,-3.33
2023-03-16T03:12:16.219Z,-3.34
2023-03-16T03:13:16.210Z,-3.31
2023-03-16T03:14:16.256Z,-3.33
2023-03-16T03:15:16.556Z,-3.33
2023-03-16T03:16:16.313Z,-3.30
2023-03-16T03:17:16.202Z,-3.31
2023-03-16T03:18:16.181Z,-3.31
2023-03-16T03:19:16.154Z,-3.33
2023-03-16T03:20:16.461Z,-3.33
2023-03-16T03:21:16.124Z,-3.31
2023-03-16T03:22:16.133Z,-3.37
2023-03-16T03:23:16.119Z,-3.38
2023-03-16T03:24:16.103Z,-3.37
2023-03-16T03:25:16.131Z,-3.40
2023-03-16T03:26:16.110Z,-3.38
2023-03-16T03:27:16.074Z,-3.41
2023-03-16T03:28:16.072Z,-3.40
2023-03-16T03:29:16.059Z,-3.38
2023-03-16T03:30:16.092Z,-3.40
2023-03-16T03:31:16.056Z,-3.41
2023-03-16T03:32:16.047Z,-3.46
2023-03-16T03:33:16.016Z,-3.48
2023-03-16T03:34:16.013Z,-3.48
2023-03-16T03:35:16.027Z,-3.49
2023-03-16T03:36:15.999Z,-3.49
2023-03-16T03:37:15.984Z,-3.54
2023-03-16T03:38:15.972Z,-3.51
2023-03-16T03:39:15.950Z,-3.48
2023-03-16T03:40:15.959Z,-3.49
2023-03-16T03:41:15.945Z,-3.52
2023-03-16T03:42:15.934Z,-3.52
2023-03-16T03:43:15.920Z,-3.49
2023-03-16T03:44:15.905Z,-3.52
2023-03-16T03:45:15.911Z,-3.51
2023-03-16T03:46:16.325Z,-3.54
2023-03-16T03:47:15.880Z,-3.54
2023-03-16T03:48:15.876Z,-3.52
2023-03-16T03:49:15.876Z,-3.52
2023-03-16T03:50:15.851Z,-3.49
2023-03-16T03:51:15.845Z,-3.48
2023-03-16T03:52:15.833Z,-3.45
2023-03-16T03:53:15.820Z,-3.46
2023-03-16T03:54:15.806Z,-3.46
2023-03-16T03:55:15.804Z,-3.46
2023-03-16T03:56:15.814Z,-3.46
2023-03-16T03:57:15.809Z,-3.45
2023-03-16T03:58:15.764Z,-3.48
2023-03-16T03:59:15.804Z,-3.51
2023-03-16T04:00:16.147Z,-3.49
2023-03-16T04:01:15.753Z,-3.48
2023-03-16T04:02:15.846Z,-3.49
2023-03-16T04:03:15.978Z,-3.49
2023-03-16T04:04:15.707Z,-3.52
2023-03-16T04:05:15.701Z,-3.51
2023-03-16T04:06:15.697Z,-3.48
2023-03-16T04:07:15.716Z,-3.51
2023-03-16T04:08:15.675Z,-3.51
2023-03-16T04:09:15.672Z,-3.51
2023-03-16T04:10:15.649Z,-3.51
2023-03-16T04:11:15.653Z,-3.49
2023-03-16T04:12:15.640Z,-3.49
2023-03-16T04:13:15.620Z,-3.51
2023-03-16T04:14:15.604Z,-3.45
2023-03-16T04:15:15.615Z,-3.48
2023-03-16T04:16:15.638Z,-3.48
2023-03-16T04:17:15.589Z,-3.46
2023-03-16T04:18:15.572Z,-3.51
2023-03-16T04:19:15.581Z,-3.51
2023-03-16T04:20:15.559Z,-3.51
2023-03-16T04:21:15.568Z,-3.48
2023-03-16T04:22:15.527Z,-3.48
2023-03-16T04:23:15.525Z,-3.46
2023-03-16T04:24:15.514Z,-3.51
2023-03-16T04:25:15.507Z,-3.48
2023-03-16T04:26:15.494Z,-3.51
2023-03-16T04:27:15.485Z,-3.51
2023-03-16T04:28:15.468Z,-3.56
2023-03-16T04:29:15.463Z,-3.56
2023-03-16T04:30:15.452Z,-3.58
2023-03-16T04:31:15.492Z,-3.56
2023-03-16T04:32:15.444Z,-3.56
2023-03-16T04:33:15.436Z,-3.58
2023-03-16T04:34:15.429Z,-3.56
2023-03-16T04:35:15.415Z,-3.58
2023-03-16T04:36:15.427Z,-3.59
2023-03-16T04:37:15.387Z,-3.59
2023-03-16T04:38:15.374Z,-3.61
2023-03-16T04:39:15.374Z,-3.63
2023-03-16T04:40:15.362Z,-3.66
2023-03-16T04:41:15.363Z,-3.61
2023-03-16T04:42:15.332Z,-3.63
2023-03-16T04:43:15.345Z,-3.66
2023-03-16T04:44:15.316Z,-3.66
2023-03-16T04:45:15.327Z,-3.67
2023-03-16T04:46:15.378Z,-3.70
2023-03-16T04:47:15.290Z,-3.69
2023-03-16T04:48:15.297Z,-3.69
2023-03-16T04:49:15.278Z,-3.66
2023-03-16T04:50:15.268Z,-3.64
2023-03-16T04:51:15.289Z,-3.66
2023-03-16T04:52:15.254Z,-3.69
2023-03-16T04:53:15.239Z,-3.67
2023-03-16T04:54:15.235Z,-3.66
2023-03-16T04:55:15.238Z,-3.66
2023-03-16T04:56:15.217Z,-3.66
2023-03-16T04:57:15.228Z,-3.64
2023-03-16T04:58:15.215Z,-3.63
2023-03-16T04:59:15.213Z,-3.61
2023-03-16T05:00:15.172Z,-3.59
2023-03-16T05:01:15.198Z,-3.59
2023-03-16T05:02:15.113Z,-3.59
2023-03-16T05:03:15.154Z,-3.61
2023-03-16T05:04:19.401Z,-3.55
2023-03-16T05:05:15.196Z,-3.56
2023-03-16T05:06:15.062Z,-3.56
2023-03-16T05:07:15.051Z,-3.58
2023-03-16T05:08:15.106Z,-3.58
2023-03-16T05:09:15.086Z,-3.56
2023-03-16T05:10:15.037Z,-3.56
2023-03-16T05:11:15.018Z,-3.56
2023-03-16T05:12:15.022Z,-3.55
2023-03-16T05:13:15.049Z,-3.61
2023-03-16T05:14:14.997Z,-3.59
2023-03-16T05:15:15.060Z,-3.63
2023-03-16T05:16:15.157Z,-3.59
2023-03-16T05:17:14.990Z,-3.59
2023-03-16T05:18:14.940Z,-3.59
2023-03-16T05:19:14.960Z,-3.59
2023-03-16T05:20:16.285Z,-3.61
2023-03-16T05:21:14.922Z,-3.61
2023-03-16T05:22:14.900Z,-3.61
2023-03-16T05:23:14.896Z,-3.61
2023-03-16T05:24:14.893Z,-3.61
2023-03-16T05:25:14.932Z,-3.61
2023-03-16T05:26:14.872Z,-3.61
2023-03-16T05:27:14.861Z,-3.59
2023-03-16T05:28:14.846Z,-3.61
2023-03-16T05:29:14.899Z,-3.59
2023-03-16T05:30:14.855Z,-3.63
2023-03-16T05:31:14.913Z,-3.59
2023-03-16T05:32:14.810Z,-3.59
2023-03-16T05:33:14.798Z,-3.63
2023-03-16T05:34:14.798Z,-3.64
2023-03-16T05:35:14.816Z,-3.66
2023-03-16T05:36:14.810Z,-3.64
2023-03-16T05:37:14.769Z,-3.63
2023-03-16T05:38:14.767Z,-3.63
2023-03-16T05:39:14.763Z,-3.64
2023-03-16T05:40:14.758Z,-3.63
2023-03-16T05:41:14.818Z,-3.61
2023-03-16T05:42:14.706Z,-3.59
2023-03-16T05:43:14.751Z,-3.61
2023-03-16T05:44:14.704Z,-3.58
2023-03-16T05:45:14.718Z,-3.56
2023-03-16T05:46:14.734Z,-3.55
2023-03-16T05:47:14.666Z,-3.54
2023-03-16T05:48:14.664Z,-3.52
2023-03-16T05:49:14.644Z,-3.51
2023-03-16T05:50:14.643Z,-3.51
2023-03-16T05:51:14.644Z,-3.49
2023-03-16T05:52:14.626Z,-3.46
2023-03-16T05:53:14.632Z,-3.45
2023-03-16T05:54:14.604Z,-3.45
2023-03-16T05:55:14.755Z,-3.40
2023-03-16T05:56:14.591Z,-3.38
2023-03-16T05:57:14.601Z,-3.37
2023-03-16T05:58:14.560Z,-3.33
2023-03-16T05:59:14.570Z,-3.35
2023-03-16T06:00:14.665Z,-3.31
2023-03-16T06:01:14.556Z,-3.31
2023-03-16T06:02:14.571Z,-3.22
2023-03-16T06:03:14.590Z,-3.20
2023-03-16T06:04:14.582Z,-3.16
2023-03-16T06:05:14.504Z,-3.16
2023-03-16T06:06:14.484Z,-3.12
2023-03-16T06:07:14.486Z,-3.04
2023-03-16T06:08:14.494Z,-3.01
2023-03-16T06:09:14.482Z,-2.97
2023-03-16T06:10:14.454Z,-2.92
2023-03-16T06:11:14.512Z,-2.91
2023-03-16T06:12:14.456Z,-2.83
2023-03-16T06:13:14.424Z,-2.77
2023-03-16T06:14:14.404Z,-2.73
2023-03-16T06:15:14.397Z,-2.66
2023-03-16T06:16:14.492Z,-2.59
2023-03-16T06:17:14.384Z,-2.55
2023-03-16T06:18:14.362Z,-2.50
2023-03-16T06:19:14.352Z,-2.44
2023-03-16T06:20:14.364Z,-2.38
2023-03-16T06:21:14.352Z,-2.34
2023-03-16T06:22:14.420Z,-2.23
2023-03-16T06:23:14.333Z,-2.18
2023-03-16T06:24:14.316Z,-2.10
2023-03-16T06:25:14.308Z,-2.01
2023-03-16T06:26:14.292Z,-1.87
2023-03-16T06:27:14.350Z,-1.79
2023-03-16T06:28:14.277Z,-1.68
2023-03-16T06:29:14.270Z,-1.62
2023-03-16T06:30:14.251Z,-1.53
2023-03-16T06:31:14.264Z,-1.44
2023-03-16T06:32:14.220Z,-1.38
2023-03-16T06:33:14.236Z,-1.26
2023-03-16T06:34:14.229Z,-1.14
2023-03-16T06:35:14.220Z,-1.07
2023-03-16T06:36:14.257Z,-0.94
2023-03-16T06:37:14.197Z,-0.82
2023-03-16T06:38:14.177Z,-0.71
2023-03-16T06:39:14.194Z,-0.59
2023-03-16T06:40:14.144Z,-0.50
2023-03-16T06:41:14.885Z,-0.38
2023-03-16T06:42:14.139Z,-0.29
2023-03-16T06:43:14.210Z,-0.21
2023-03-16T06:44:14.115Z,-0.10
2023-03-16T06:45:14.179Z,-0.02
2023-03-16T06:46:14.198Z,0.03
2023-03-16T06:47:14.083Z,0.08
2023-03-16T06:48:14.128Z,0.12
2023-03-16T06:49:14.063Z,0.18
2023-03-16T06:50:14.071Z,0.19
2023-03-16T06:51:16.688Z,0.21
2023-03-16T06:52:14.058Z,0.23
2023-03-16T06:53:14.027Z,0.26
2023-03-16T06:54:14.016Z,0.26
2023-03-16T06:55:14.014Z,0.26
2023-03-16T06:56:14.439Z,0.23
2023-03-16T06:57:13.990Z,0.25
2023-03-16T06:58:14.004Z,0.28
2023-03-16T06:59:13.965Z,0.29
2023-03-16T07:00:13.986Z,0.31
2023-03-16T07:01:14.771Z,0.31
2023-03-16T07:02:13.962Z,0.32
2023-03-16T07:03:13.979Z,0.32
2023-03-16T07:04:13.955Z,0.32
2023-03-16T07:05:13.926Z,0.34
2023-03-16T07:06:13.913Z,0.32
2023-03-16T07:07:13.903Z,0.36
2023-03-16T07:08:13.898Z,0.32
2023-03-16T07:09:13.866Z,0.36
2023-03-16T07:10:13.858Z,0.32
2023-03-16T07:11:13.837Z,0.34
2023-03-16T07:12:13.890Z,0.32
2023-03-16T07:13:13.823Z,0.36
2023-03-16T07:14:13.809Z,0.40
2023-03-16T07:15:13.803Z,0.39
2023-03-16T07:16:13.880Z,0.43
2023-03-16T07:17:13.791Z,0.47
2023-03-16T07:18:13.798Z,0.47
2023-03-16T07:19:13.774Z,0.55
2023-03-16T07:20:13.761Z,0.56
2023-03-16T07:21:13.739Z,0.59
2023-03-16T07:22:13.743Z,0.62
2023-03-16T07:23:13.722Z,0.66
2023-03-16T07:24:13.713Z,0.66
2023-03-16T07:25:13.708Z,0.73
2023-03-16T07:26:13.717Z,0.80
2023-03-16T07:28:25.589Z,0.94
2023-03-16T07:29:26.568Z,0.98
2023-03-16T07:30:26.764Z,1.01
2023-03-16T07:31:27.412Z,1.05
2023-03-16T07:32:26.575Z,1.13
2023-03-16T07:33:26.529Z,1.16
2023-03-16T07:34:26.523Z,1.22
2023-03-16T07:35:26.517Z,1.30
2023-03-16T07:36:26.818Z,1.34
2023-03-16T07:37:26.512Z,1.38
2023-03-16T07:38:26.486Z,1.45
2023-03-16T07:39:26.467Z,1.52
2023-03-16T07:40:27.064Z,1.55
2023-03-16T07:41:27.173Z,1.59
2023-03-16T07:42:26.443Z,1.63
2023-03-16T07:43:26.425Z,1.68
2023-03-16T07:44:26.426Z,1.68
2023-03-16T07:45:26.598Z,1.70
2023-03-16T07:46:26.832Z,1.78
2023-03-16T07:47:26.760Z,1.80
2023-03-16T07:48:26.399Z,1.81
2023-03-16T07:49:26.380Z,1.88
2023-03-16T07:50:26.751Z,1.91
2023-03-16T07:51:26.682Z,1.91
2023-03-16T07:52:26.362Z,1.94
2023-03-16T07:53:26.323Z,1.95
2023-03-16T07:54:26.357Z,1.97
2023-03-16T07:55:26.311Z,2.02
2023-03-16T07:56:29.727Z,2.08
2023-03-16T07:57:26.292Z,2.11
2023-03-16T07:58:26.278Z,2.15
2023-03-16T07:59:26.285Z,2.22
2023-03-16T08:00:26.259Z,2.25
2023-03-16T08:01:26.769Z,2.29
2023-03-16T08:02:26.291Z,2.33
2023-03-16T08:03:26.264Z,2.43
2023-03-16T08:04:26.228Z,2.47
2023-03-16T08:05:27.824Z,2.54
2023-03-16T08:06:26.470Z,2.54
2023-03-16T08:07:26.190Z,2.60
2023-03-16T08:08:26.179Z,2.61
2023-03-16T08:09:26.163Z,2.67
2023-03-16T08:10:26.323Z,2.75
2023-03-16T08:11:26.463Z,2.77
2023-03-16T08:12:26.156Z,2.85
2023-03-16T08:13:26.126Z,2.90
2023-03-16T08:14:26.127Z,2.95
2023-03-16T08:15:26.125Z,3.00
2023-03-16T08:16:26.223Z,3.04
2023-03-16T08:17:26.096Z,3.07
2023-03-16T08:18:26.307Z,3.11
2023-03-16T08:19:26.071Z,3.18
2023-03-16T08:20:26.072Z,3.23
2023-03-16T08:21:26.051Z,3.22
2023-03-16T08:22:26.047Z,3.25
2023-03-16T08:23:26.103Z,3.32
2023-03-16T08:24:26.026Z,3.40
2023-03-16T08:25:26.016Z,3.48
2023-03-16T08:26:26.010Z,3.51
2023-03-16T08:27:25.994Z,3.60
2023-03-16T08:28:26.057Z,3.65
2023-03-16T08:29:26.027Z,3.74
2023-03-16T08:30:25.972Z,3.78
2023-03-16T08:31:25.977Z,3.86
2023-03-16T08:32:25.972Z,3.99
2023-03-16T08:33:25.968Z,4.12
2023-03-16T08:34:25.928Z,4.24
2023-03-16T08:35:25.920Z,4.28
2023-03-16T08:36:25.898Z,4.31
2023-03-16T08:37:25.900Z,4.31
2023-03-16T08:38:25.877Z,4.34
2023-03-16T08:39:25.875Z,4.34
2023-03-16T08:40:25.861Z,4.30
2023-03-16T08:41:25.861Z,4.28
2023-03-16T08:42:25.845Z,4.20
2023-03-16T08:43:25.827Z,4.23
2023-03-16T08:44:25.829Z,4.30
2023-03-16T08:45:25.837Z,4.31
2023-03-16T08:46:25.854Z,4.37
2023-03-16T08:47:25.859Z,4.45
2023-03-16T08:48:25.789Z,4.53
2023-03-16T08:49:25.761Z,4.62
2023-03-16T08:50:25.770Z,4.75
2023-03-16T08:51:25.763Z,4.87
2023-03-16T08:52:25.745Z,5.00
2023-03-16T08:53:25.736Z,5.12
2023-03-16T08:54:25.723Z,5.25
2023-03-16T08:55:25.708Z,5.30
2023-03-16T08:56:25.722Z,5.41
2023-03-16T08:57:25.686Z,5.54
2023-03-16T08:58:25.682Z,5.64
2023-03-16T08:59:30.248Z,5.65
2023-03-16T09:00:25.680Z,5.56
2023-03-16T09:01:25.768Z,5.53
2023-03-16T09:02:25.661Z,5.56
2023-03-16T09:03:25.617Z,5.61
2023-03-16T09:04:25.769Z,5.72
2023-03-16T09:05:25.608Z,5.90
2023-03-16T09:06:25.591Z,5.98
2023-03-16T09:07:25.587Z,6.08
2023-03-16T09:08:25.602Z,6.19
2023-03-16T09:09:25.552Z,6.14
2023-03-16T09:10:25.697Z,6.12
2023-03-16T09:11:25.544Z,6.07
2023-03-16T09:12:25.540Z,6.02
2023-03-16T09:13:25.511Z,5.99
2023-03-16T09:14:25.505Z,5.93
2023-03-16T09:15:25.491Z,5.98
2023-03-16T09:16:25.822Z,6.07
2023-03-16T09:17:25.483Z,6.28
2023-03-16T09:18:25.578Z,6.44
2023-03-16T09:19:25.449Z,6.56
2023-03-16T09:20:29.581Z,6.59
2023-03-16T09:21:25.440Z,6.60
2023-03-16T09:22:26.246Z,6.64
2023-03-16T09:23:25.429Z,6.75
2023-03-16T09:24:25.416Z,6.82
2023-03-16T09:25:25.521Z,6.89
2023-03-16T09:26:25.438Z,6.97
2023-03-16T09:27:25.732Z,7.11
2023-03-16T09:28:25.362Z,7.03
2023-03-16T09:29:25.354Z,7.14
2023-03-16T09:30:25.352Z,7.28
2023-03-16T09:31:25.347Z,7.47
2023-03-16T09:32:25.774Z,7.56
2023-03-16T09:33:25.308Z,7.70
2023-03-16T09:35:25.288Z,8.06
2023-03-16T09:36:25.279Z,8.13
2023-03-16T09:37:25.406Z,8.16
2023-03-16T09:38:25.267Z,8.27
2023-03-16T09:39:25.259Z,8.33
2023-03-16T09:40:25.272Z,8.42
2023-03-16T09:41:25.241Z,8.38
2023-03-16T09:42:25.403Z,8.36
2023-03-16T09:43:25.256Z,8.46
2023-03-16T09:44:25.207Z,8.56
2023-03-16T09:45:25.238Z,8.55
2023-03-16T09:46:25.190Z,8.69
2023-03-16T09:47:25.373Z,8.91
2023-03-16T09:48:25.193Z,9.21
2023-03-16T09:49:25.152Z,9.39
2023-03-16T09:50:26.591Z,9.50
2023-03-16T09:51:25.250Z,9.56
2023-03-16T09:52:25.527Z,9.66
2023-03-16T09:53:25.126Z,9.76
2023-03-16T09:54:25.093Z,9.83
2023-03-16T09:55:25.085Z,9.76
2023-03-16T09:56:25.087Z,9.82
2023-03-16T09:57:25.676Z,9.92
2023-03-16T09:58:25.055Z,9.95
2023-03-16T09:59:25.082Z,9.84
2023-03-16T10:00:25.040Z,9.84
2023-03-16T10:01:25.115Z,9.82
2023-03-16T10:02:25.662Z,9.82
2023-03-16T10:03:25.005Z,9.89
2023-03-16T10:04:25.007Z,9.94
2023-03-16T10:05:24.972Z,10.04
2023-03-16T10:06:24.989Z,10.07
2023-03-16T10:07:25.274Z,10.04
2023-03-16T10:08:24.996Z,10.02
2023-03-16T10:09:24.934Z,9.98
2023-03-16T10:10:24.943Z,10.07
2023-03-16T10:11:24.920Z,10.04
2023-03-16T10:12:26.033Z,10.15
2023-03-16T10:13:24.892Z,10.16
2023-03-16T10:14:24.890Z,10.20
2023-03-16T10:15:24.877Z,10.17
2023-03-16T10:16:24.955Z,10.10
2023-03-16T10:17:24.863Z,10.16
2023-03-16T10:18:24.910Z,10.07
2023-03-16T10:19:24.833Z,10.01
2023-03-16T10:20:24.821Z,10.04
2023-03-16T10:21:25.105Z,10.13
2023-03-16T10:22:24.807Z,10.28
2023-03-16T10:23:24.830Z,10.56
2023-03-16T10:24:24.816Z,10.68
2023-03-16T10:25:24.761Z,10.78
2023-03-16T10:26:24.761Z,10.64
2023-03-16T10:27:24.752Z,10.57
2023-03-16T10:28:24.766Z,10.57
2023-03-16T10:29:24.719Z,10.23
2023-03-16T10:30:24.874Z,10.04
2023-03-16T10:31:24.762Z,9.98
2023-03-16T10:32:24.712Z,9.95
2023-03-16T10:33:24.704Z,9.80
2023-03-16T10:34:24.679Z,9.69
2023-03-16T10:35:24.676Z,9.80
2023-03-16T10:36:24.671Z,9.87
2023-03-16T10:37:24.645Z,9.95
2023-03-16T10:38:24.647Z,9.94
2023-03-16T10:39:24.620Z,9.89
2023-03-16T10:40:24.612Z,9.83
2023-03-16T10:41:24.625Z,9.84
2023-03-16T10:42:24.597Z,9.92
2023-03-16T10:43:24.634Z,10.16
2023-03-16T10:44:24.606Z,10.41
2023-03-16T10:45:24.566Z,10.67
2023-03-16T10:46:24.664Z,10.92
2023-03-16T10:47:24.681Z,11.11
2023-03-16T10:48:24.555Z,11.32
2023-03-16T10:49:24.538Z,11.54
2023-03-16T10:50:24.505Z,11.65
2023-03-16T10:51:24.517Z,11.68
2023-03-16T10:52:24.488Z,11.63
2023-03-16T10:53:24.490Z,11.59
2023-03-16T10:54:24.463Z,11.69
2023-03-16T10:55:24.477Z,11.62
2023-03-16T10:56:24.445Z,11.54
2023-03-16T10:57:24.458Z,11.47
2023-03-16T10:58:24.467Z,11.55
2023-03-16T10:59:24.421Z,11.55
2023-03-16T11:00:24.420Z,11.62
2023-03-16T11:01:24.435Z,11.40
2023-03-16T11:02:24.395Z,11.23
2023-03-16T11:03:24.379Z,10.79
2023-03-16T11:04:24.407Z,10.74
2023-03-16T11:05:24.366Z,10.74
2023-03-16T11:06:24.361Z,10.71
2023-03-16T11:07:24.352Z,10.69
2023-03-16T11:08:24.326Z,10.51
2023-03-16T11:09:24.323Z,10.60
2023-03-16T11:10:24.329Z,10.60
2023-03-16T11:11:24.322Z,10.76
2023-03-16T11:12:24.298Z,10.96
2023-03-16T11:13:24.293Z,11.08
2023-03-16T11:14:24.261Z,11.25
2023-03-16T11:15:26.117Z,11.33
2023-03-16T11:16:24.308Z,11.29
2023-03-16T11:17:24.231Z,11.30
2023-03-16T11:18:24.566Z,11.23
2023-03-16T11:19:24.215Z,11.27
2023-03-16T11:20:24.221Z,10.69
2023-03-16T11:21:24.195Z,10.72
2023-03-16T11:22:24.186Z,10.97
2023-03-16T11:23:24.225Z,11.05
2023-03-16T11:24:24.189Z,10.99
2023-03-16T11:25:24.155Z,11.15
2023-03-16T11:26:24.135Z,10.96
2023-03-16T11:27:24.145Z,11.17
2023-03-16T11:28:24.475Z,11.47
2023-03-16T11:29:24.116Z,11.70
2023-03-16T11:30:24.152Z,11.94
2023-03-16T11:31:24.131Z,11.83
2023-03-16T11:32:24.126Z,11.60
2023-03-16T11:33:24.493Z,11.07
2023-03-16T11:34:24.082Z,10.94
2023-03-16T11:35:24.072Z,11.14
2023-03-16T11:36:24.093Z,11.17
2023-03-16T11:37:24.033Z,11.02
2023-03-16T11:38:24.413Z,10.78
2023-03-16T11:39:24.015Z,10.60
2023-03-16T11:40:24.026Z,10.28
2023-03-16T11:41:23.987Z,10.25
2023-03-16T11:42:23.986Z,10.51
2023-03-16T11:43:24.120Z,10.86
2023-03-16T11:44:24.055Z,11.32
2023-03-16T11:45:23.945Z,11.65
2023-03-16T11:46:24.025Z,11.97
2023-03-16T11:47:23.994Z,12.31
2023-03-16T11:48:24.249Z,12.17
2023-03-16T11:49:23.909Z,11.99
2023-03-16T11:50:23.880Z,12.04
2023-03-16T11:51:23.892Z,12.09
2023-03-16T11:52:23.880Z,11.97
2023-03-16T11:53:23.881Z,12.00
2023-03-16T11:54:23.894Z,12.09
2023-03-16T11:55:23.832Z,12.24
2023-03-16T11:56:23.837Z,12.29
2023-03-16T11:57:23.836Z,12.49
2023-03-16T11:58:24.164Z,12.68
2023-03-16T11:59:23.809Z,12.65
2023-03-16T12:00:23.780Z,12.61
2023-03-16T12:01:23.822Z,12.50
2023-03-16T12:02:23.845Z,12.13
2023-03-16T12:03:24.324Z,11.88
2023-03-16T12:04:23.933Z,11.51
2023-03-16T12:05:23.732Z,11.29
2023-03-16T12:06:24.060Z,10.97
2023-03-16T12:07:23.741Z,10.67
2023-03-16T12:08:23.999Z,10.54
2023-03-16T12:09:23.692Z,10.40
2023-03-16T12:10:23.714Z,10.12
2023-03-16T12:11:23.671Z,10.12
2023-03-16T12:12:23.650Z,9.87
2023-03-16T12:13:24.056Z,9.82
2023-03-16T12:14:23.625Z,9.89
2023-03-16T12:15:23.656Z,9.83
2023-03-16T12:16:23.683Z,9.87
2023-03-16T12:17:23.616Z,9.94
2023-03-16T12:18:23.588Z,10.07
2023-03-16T12:19:23.610Z,10.07
2023-03-16T12:20:23.626Z,10.16
2023-03-16T12:21:23.604Z,10.25
2023-03-16T12:22:23.545Z,10.26
2023-03-16T12:23:23.528Z,10.35
2023-03-16T12:24:23.589Z,10.49
2023-03-16T12:25:23.531Z,10.61
2023-03-16T12:26:23.503Z,10.81
2023-03-16T12:27:23.507Z,10.94
2023-03-16T12:28:23.486Z,11.05
2023-03-16T12:29:23.488Z,10.97
2023-03-16T12:30:23.479Z,10.92
2023-03-16T12:31:23.477Z,10.76
2023-03-16T12:32:23.554Z,11.00
2023-03-16T12:33:23.442Z,11.25
2023-03-16T12:34:23.421Z,11.33
2023-03-16T12:35:23.435Z,11.41
2023-03-16T12:36:23.396Z,11.44
2023-03-16T12:37:23.408Z,11.25
2023-03-16T12:38:23.379Z,11.14
2023-03-16T12:39:23.378Z,11.15
2023-03-16T12:40:23.360Z,11.12
2023-03-16T12:41:23.352Z,11.17
2023-03-16T12:42:23.341Z,11.17
2023-03-16T12:43:23.339Z,11.22
2023-03-16T12:44:23.334Z,11.29
2023-03-16T12:45:23.311Z,11.44
2023-03-16T12:46:23.343Z,11.59
2023-03-16T12:47:23.316Z,11.59
2023-03-16T12:48:23.283Z,11.60
2023-03-16T12:49:23.288Z,11.62
2023-03-16T12:50:23.256Z,11.60
2023-03-16T12:51:23.248Z,11.55
2023-03-16T12:52:23.221Z,11.83
2023-03-16T12:53:23.240Z,11.77
2023-03-16T12:54:23.229Z,11.99
2023-03-16T12:55:23.208Z,12.10
2023-03-16T12:56:23.188Z,12.07
2023-03-16T12:57:23.191Z,12.02
2023-03-16T12:58:23.179Z,12.00
2023-03-16T12:59:23.192Z,12.07
2023-03-16T13:00:23.160Z,12.32
2023-03-16T13:01:23.162Z,12.67